createdAt,value
2023-05-05T00:00:01.798Z,100531.59
2023-05-05T00:00:33.974Z,100528.91
2023-05-05T00:01:06.456Z,100534.28
2023-05-05T00:01:41.249Z,100534.28
2023-05-05T00:02:13.547Z,100541.84
2023-05-05T00:02:45.884Z,100531.59
2023-05-05T00:03:21.103Z,100534.03
2023-05-05T00:03:53.740Z,100534.28
2023-05-05T00:04:25.991Z,100530.50
2023-05-05T00:05:00.789Z,100533.47
2023-05-05T00:05:32.994Z,100528.34
2023-05-05T00:06:05.779Z,100529.44
2023-05-05T00:06:40.617Z,100531.31
2023-05-05T00:07:12.781Z,100529.66
2023-05-05T00:07:45.012Z,100534.00
2023-05-05T00:08:20.057Z,100532.13
2023-05-05T00:08:52.278Z,100529.66
2023-05-05T00:09:24.468Z,100531.31
2023-05-05T00:10:02.042Z,100534.00
2023-05-05T00:10:34.245Z,100526.94
2023-05-05T00:11:06.581Z,100526.94
2023-05-05T00:11:38.905Z,100528.63
2023-05-05T00:12:13.675Z,100529.44
2023-05-05T00:12:45.918Z,100526.13
2023-05-05T00:13:18.329Z,100528.84
2023-05-05T00:13:53.535Z,100526.13
2023-05-05T00:14:25.767Z,100531.53
2023-05-05T00:14:58.104Z,100526.94
2023-05-05T00:15:30.442Z,100525.31
2023-05-05T00:16:05.165Z,100532.91
2023-05-05T00:16:37.660Z,100529.38
2023-05-05T00:17:10.111Z,100530.19
2023-05-05T00:17:44.981Z,100528.56
2023-05-05T00:18:18.941Z,100536.66
2023-05-05T00:18:53.692Z,100527.75
2023-05-05T00:19:25.882Z,100532.34
2023-05-05T00:19:59.903Z,100529.63
2023-05-05T00:20:32.110Z,100537.47
2023-05-05T00:21:07.282Z,100531.28
2023-05-05T00:21:39.439Z,100533.97
2023-05-05T00:22:11.976Z,100527.75
2023-05-05T00:22:44.179Z,100528.56
2023-05-05T00:23:19.140Z,100529.38
2023-05-05T00:23:51.631Z,100527.50
2023-05-05T00:24:23.871Z,100534.53
2023-05-05T00:25:01.220Z,100532.59
2023-05-05T00:25:33.447Z,100536.41
2023-05-05T00:26:05.709Z,100528.31
2023-05-05T00:26:37.890Z,100530.19
2023-05-05T00:27:13.421Z,100536.41
2023-05-05T00:27:45.601Z,100531.28
2023-05-05T00:28:17.873Z,100532.91
2023-05-05T00:28:52.619Z,100533.97
2023-05-05T00:29:24.824Z,100534.22
2023-05-05T00:29:57.063Z,100537.75
2023-05-05T00:30:31.967Z,100533.41
2023-05-05T00:31:04.296Z,100529.94
2023-05-05T00:31:36.944Z,100536.09
2023-05-05T00:32:12.048Z,100536.09
2023-05-05T00:32:44.341Z,100528.00
2023-05-05T00:33:16.955Z,100528.81
2023-05-05T00:33:51.787Z,100533.41
2023-05-05T00:34:24.191Z,100530.44
2023-05-05T00:34:56.702Z,100528.81
2023-05-05T00:35:28.936Z,100535.03
2023-05-05T00:36:03.729Z,100536.66
2023-05-05T00:36:36.141Z,100537.75
2023-05-05T00:37:08.396Z,100533.41
2023-05-05T00:37:43.429Z,100530.72
2023-05-05T00:38:15.617Z,100541.50
2023-05-05T00:38:50.457Z,100541.50
2023-05-05T00:39:22.735Z,100541.50
2023-05-05T00:39:54.874Z,100538.03
2023-05-05T00:40:32.717Z,100548.53
2023-05-05T00:41:05.417Z,100540.72
2023-05-05T00:41:37.615Z,100545.84
2023-05-05T00:42:12.426Z,100542.88
2023-05-05T00:42:46.548Z,100541.81
2023-05-05T00:43:18.735Z,100547.22
2023-05-05T00:43:53.472Z,100549.63
2023-05-05T00:44:37.150Z,100543.69
2023-05-05T00:45:10.677Z,100544.78
2023-05-05T00:45:48.204Z,100539.13
2023-05-05T00:46:24.597Z,100541.00
2023-05-05T00:46:56.973Z,100542.88
2023-05-05T00:47:32.017Z,100543.41
2023-05-05T00:48:04.772Z,100552.31
2023-05-05T00:48:36.982Z,100547.75
2023-05-05T00:49:12.973Z,100551.03
2023-05-05T00:49:45.834Z,100545.63
2023-05-05T00:50:24.036Z,100542.13
2023-05-05T00:50:56.688Z,100543.16
2023-05-05T00:51:32.208Z,100542.94
2023-05-05T00:52:05.584Z,100546.44
2023-05-05T00:52:39.463Z,100543.97
2023-05-05T00:53:15.111Z,100547.25
2023-05-05T00:53:48.014Z,100544.81
2023-05-05T00:54:20.252Z,100541.03
2023-05-05T00:54:55.335Z,100537.25
2023-05-05T00:55:30.789Z,100539.16
2023-05-05T00:56:03.400Z,100539.94
2023-05-05T00:56:38.584Z,100536.16
2023-05-05T00:57:11.156Z,100541.56
2023-05-05T00:57:44.476Z,100539.16
2023-05-05T00:58:19.318Z,100544.56
2023-05-05T00:58:51.487Z,100535.34
2023-05-05T00:59:24.537Z,100544.28
2023-05-05T01:00:01.191Z,100540.75
2023-05-05T01:00:33.660Z,100545.91
2023-05-05T01:01:05.811Z,100545.66
2023-05-05T01:01:40.657Z,100550.22
2023-05-05T01:02:13.155Z,100548.34
2023-05-05T01:02:46.318Z,100542.94
2023-05-05T01:03:21.254Z,100546.47
2023-05-05T01:03:53.519Z,100547.53
2023-05-05T01:04:26.668Z,100542.94
2023-05-05T01:05:01.562Z,100543.75
2023-05-05T01:05:48.775Z,100539.44
2023-05-05T01:06:39.742Z,100539.69
2023-05-05T01:07:23.304Z,100547.53
2023-05-05T01:08:16.616Z,100540.47
2023-05-05T01:09:05.472Z,100543.69
2023-05-05T01:09:47.286Z,100540.44
2023-05-05T01:10:26.234Z,100533.41
2023-05-05T01:11:08.059Z,100531.81
2023-05-05T01:11:49.065Z,100538.03
2023-05-05T01:12:27.479Z,100545.31
2023-05-05T01:13:09.274Z,100538.03
2023-05-05T01:13:53.604Z,100535.31
2023-05-05T01:14:36.664Z,100542.06
2023-05-05T01:15:18.358Z,100538.53
2023-05-05T01:15:57.016Z,100540.44
2023-05-05T01:16:33.547Z,100537.72
2023-05-05T01:17:17.271Z,100549.09
2023-05-05T01:18:01.014Z,100543.94
2023-05-05T01:18:42.436Z,100545.81
2023-05-05T01:19:38.213Z,100542.06
2023-05-05T01:20:21.741Z,100548.53
2023-05-05T01:21:03.624Z,100545.56
2023-05-05T01:21:41.491Z,100543.94
2023-05-05T01:22:18.626Z,100542.06
2023-05-05T01:22:55.446Z,100544.75
2023-05-05T01:23:59.332Z,100546.63
2023-05-05T01:24:58.294Z,100546.09
2023-05-05T01:26:17.952Z,100548.50
2023-05-05T01:27:00.675Z,100543.91
2023-05-05T01:27:50.515Z,100545.53
2023-05-05T01:28:41.341Z,100541.44
2023-05-05T01:29:49.366Z,100539.81
2023-05-05T01:30:40.238Z,100541.44
2023-05-05T01:31:42.650Z,100544.66
2023-05-05T01:32:19.103Z,100537.63
2023-05-05T01:32:55.513Z,100537.09
2023-05-05T01:33:36.205Z,100538.72
2023-05-05T01:34:13.787Z,100536.03
2023-05-05T01:35:03.103Z,100533.31
2023-05-05T01:35:41.970Z,100543.84
2023-05-05T01:36:22.998Z,100532.53
2023-05-05T01:37:04.805Z,100530.06
2023-05-05T01:37:43.986Z,100530.34
2023-05-05T01:38:19.687Z,100536.00
2023-05-05T01:39:00.273Z,100536.00
2023-05-05T01:39:35.272Z,100539.78
2023-05-05T01:40:12.469Z,100542.47
2023-05-05T01:40:51.800Z,100536.53
2023-05-05T01:41:28.617Z,100537.88
2023-05-05T01:42:06.415Z,100532.97
2023-05-05T01:42:45.082Z,100537.84
2023-05-05T01:43:21.045Z,100540.78
2023-05-05T01:43:56.300Z,100532.69
2023-05-05T01:44:31.810Z,100540.78
2023-05-05T01:45:06.931Z,100538.91
2023-05-05T01:45:43.097Z,100544.56
2023-05-05T01:46:16.380Z,100539.16
2023-05-05T01:46:56.056Z,100539.16
2023-05-05T01:47:29.100Z,100539.44
2023-05-05T01:48:02.361Z,100533.78
2023-05-05T01:48:37.699Z,100545.38
2023-05-05T01:49:12.025Z,100542.69
2023-05-05T01:49:46.833Z,100548.88
2023-05-05T01:50:23.171Z,100547.81
2023-05-05T01:50:56.292Z,100543.50
2023-05-05T01:51:29.749Z,100544.88
2023-05-05T01:52:06.463Z,100550.53
2023-05-05T01:52:41.513Z,100556.97
2023-05-05T01:53:15.071Z,100547.00
2023-05-05T01:53:50.574Z,100556.97
2023-05-05T01:54:24.819Z,100550.53
2023-05-05T01:54:58.753Z,100561.31
2023-05-05T01:55:33.910Z,100558.63
2023-05-05T01:56:09.824Z,100559.44
2023-05-05T01:56:43.458Z,100557.56
2023-05-05T01:57:16.807Z,100555.66
2023-05-05T01:57:52.979Z,100554.84
2023-05-05T01:58:26.621Z,100553.78
2023-05-05T01:59:01.551Z,100553.22
2023-05-05T01:59:37.171Z,100555.91
2023-05-05T02:00:11.658Z,100561.88
2023-05-05T02:00:52.043Z,100552.41
2023-05-05T02:01:29.341Z,100548.88
2023-05-05T02:02:04.945Z,100548.06
2023-05-05T02:02:39.489Z,100554.28
2023-05-05T02:03:18.354Z,100544.56
2023-05-05T02:03:52.905Z,100551.88
2023-05-05T02:04:28.519Z,100546.19
2023-05-05T02:05:06.423Z,100552.66
2023-05-05T02:05:40.217Z,100556.97
2023-05-05T02:06:13.318Z,100549.72
2023-05-05T02:06:51.797Z,100552.16
2023-05-05T02:07:24.663Z,100549.72
2023-05-05T02:07:59.853Z,100552.97
2023-05-05T02:08:36.229Z,100548.63
2023-05-05T02:09:11.858Z,100555.09
2023-05-05T02:09:45.330Z,100547.00
2023-05-05T02:10:17.956Z,100552.66
2023-05-05T02:10:53.390Z,100551.06
2023-05-05T02:11:28.367Z,100554.25
2023-05-05T02:12:04.184Z,100555.06
2023-05-05T02:12:42.552Z,100561.53
2023-05-05T02:13:16.239Z,100557.50
2023-05-05T02:13:50.314Z,100557.50
2023-05-05T02:14:26.725Z,100558.31
2023-05-05T02:15:01.663Z,100559.38
2023-05-05T02:15:38.666Z,100563.13
2023-05-05T02:16:13.219Z,100561.78
2023-05-05T02:16:46.090Z,100557.47
2023-05-05T02:17:26.008Z,100549.38
2023-05-05T02:17:59.672Z,100553.69
2023-05-05T02:18:35.974Z,100548.31
2023-05-05T02:19:09.096Z,100556.41
2023-05-05T02:19:48.052Z,100549.94
2023-05-05T02:20:21.423Z,100552.06
2023-05-05T02:20:53.837Z,100552.06
2023-05-05T02:21:28.764Z,100546.94
2023-05-05T02:22:01.131Z,100555.28
2023-05-05T02:22:33.591Z,100551.53
2023-05-05T02:23:10.142Z,100557.47
2023-05-05T02:23:42.512Z,100553.66
2023-05-05T02:24:14.709Z,100548.53
2023-05-05T02:24:49.694Z,100552.03
2023-05-05T02:25:26.185Z,100545.56
2023-05-05T02:26:03.901Z,100546.38
2023-05-05T02:26:43.099Z,100548.28
2023-05-05T02:27:18.100Z,100540.19
2023-05-05T02:27:53.550Z,100544.75
2023-05-05T02:28:35.523Z,100541.25
2023-05-05T02:29:11.040Z,100542.59
2023-05-05T02:29:48.347Z,100540.16
2023-05-05T02:30:24.229Z,100539.34
2023-05-05T02:30:59.790Z,100545.53
2023-05-05T02:31:38.720Z,100534.75
2023-05-05T02:32:19.933Z,100539.91
2023-05-05T02:33:00.432Z,100539.91
2023-05-05T02:33:35.702Z,100525.59
2023-05-05T02:34:11.670Z,100532.09
2023-05-05T02:34:46.506Z,100525.63
2023-05-05T02:35:27.204Z,100533.72
2023-05-05T02:36:10.413Z,100529.13
2023-05-05T02:36:51.601Z,100536.66
2023-05-05T02:37:30.121Z,100532.91
2023-05-05T02:38:08.172Z,100528.31
2023-05-05T02:38:46.634Z,100535.84
2023-05-05T02:39:25.235Z,100537.47
2023-05-05T02:40:05.051Z,100538.28
2023-05-05T02:40:42.599Z,100537.44
2023-05-05T02:41:20.523Z,100543.91
2023-05-05T02:41:57.399Z,100542.31
2023-05-05T02:42:35.748Z,100541.50
2023-05-05T02:43:11.571Z,100546.06
2023-05-05T02:43:47.273Z,100551.22
2023-05-05T02:44:23.593Z,100545.00
2023-05-05T02:44:59.567Z,100546.88
2023-05-05T02:45:35.036Z,100540.69
2023-05-05T02:46:08.035Z,100545.25
2023-05-05T02:46:42.910Z,100536.59
2023-05-05T02:47:17.681Z,100535.50
2023-05-05T02:47:50.046Z,100543.09
2023-05-05T02:48:25.022Z,100539.31
2023-05-05T02:49:01.812Z,100545.50
2023-05-05T02:49:34.335Z,100542.81
2023-05-05T02:50:08.935Z,100540.69
2023-05-05T02:50:46.595Z,100543.91
2023-05-05T02:51:25.700Z,100545.81
2023-05-05T02:51:58.245Z,100544.47
2023-05-05T02:52:33.956Z,100540.72
2023-05-05T02:53:08.898Z,100544.22
2023-05-05T02:53:41.341Z,100550.44
2023-05-05T02:54:13.634Z,100553.13
2023-05-05T02:54:48.515Z,100549.63
2023-05-05T02:55:23.533Z,100544.72
2023-05-05T02:56:02.208Z,100544.19
2023-05-05T02:56:45.806Z,100555.75
2023-05-05T02:57:20.691Z,100549.81
2023-05-05T02:58:04.891Z,100546.28
2023-05-05T02:58:49.170Z,100556.00
2023-05-05T02:59:31.921Z,100557.91
2023-05-05T03:00:14.226Z,100558.97
2023-05-05T03:00:56.376Z,100552.78
2023-05-05T03:01:40.641Z,100549.53
2023-05-05T03:02:21.218Z,100554.91
2023-05-05T03:03:05.997Z,100553.03
2023-05-05T03:03:52.060Z,100558.69
2023-05-05T03:04:32.192Z,100551.69
2023-05-05T03:05:13.112Z,100564.34
2023-05-05T03:06:14.058Z,100557.84
2023-05-05T03:06:51.334Z,100556.47
2023-05-05T03:07:31.068Z,100552.72
2023-05-05T03:08:13.747Z,100551.91
2023-05-05T03:08:52.921Z,100553.78
2023-05-05T03:09:31.196Z,100552.44
2023-05-05T03:10:12.064Z,100557.81
2023-05-05T03:10:57.763Z,100550.78
2023-05-05T03:11:35.746Z,100558.06
2023-05-05T03:12:16.701Z,100555.38
2023-05-05T03:13:12.895Z,100560.47
2023-05-05T03:13:51.688Z,100562.88
2023-05-05T03:14:33.502Z,100562.88
2023-05-05T03:15:09.451Z,100557.50
2023-05-05T03:15:45.058Z,100561.28
2023-05-05T03:16:22.086Z,100568.56
2023-05-05T03:16:56.842Z,100560.47
2023-05-05T03:17:31.284Z,100563.16
2023-05-05T03:18:09.252Z,100571.78
2023-05-05T03:18:45.915Z,100562.63
2023-05-05T03:19:19.914Z,100566.16
2023-05-05T03:19:58.456Z,100565.34
2023-05-05T03:20:31.370Z,100563.47
2023-05-05T03:21:09.759Z,100568.03
2023-05-05T03:21:47.921Z,100569.66
2023-05-05T03:22:20.329Z,100575.88
2023-05-05T03:22:53.548Z,100565.09
2023-05-05T03:23:28.608Z,100571.03
2023-05-05T03:24:12.827Z,100573.72
2023-05-05T03:24:52.867Z,100575.59
2023-05-05T03:25:42.675Z,100566.16
2023-05-05T03:26:20.557Z,100565.09
2023-05-05T03:26:53.732Z,100575.59
2023-05-05T03:27:31.510Z,100570.19
2023-05-05T03:28:04.276Z,100574.81
2023-05-05T03:28:36.570Z,100574.53
2023-05-05T03:29:19.131Z,100575.59
2023-05-05T03:29:51.295Z,100573.72
2023-05-05T03:30:23.725Z,100573.22
2023-05-05T03:31:00.155Z,100568.06
2023-05-05T03:31:32.815Z,100578.84
2023-05-05T03:32:07.962Z,100574.28
2023-05-05T03:32:42.874Z,100576.16
2023-05-05T03:33:16.700Z,100567.25
2023-05-05T03:33:51.549Z,100572.66
2023-05-05T03:34:29.008Z,100579.94
2023-05-05T03:35:03.249Z,100568.31
2023-05-05T03:35:38.579Z,100573.47
2023-05-05T03:36:15.962Z,100581.56
2023-05-05T03:36:48.285Z,100568.06
2023-05-05T03:37:21.731Z,100569.44
2023-05-05T03:37:56.536Z,100570.25
2023-05-05T03:38:28.702Z,100562.44
2023-05-05T03:39:00.950Z,100564.31
2023-05-05T03:39:38.958Z,100568.88
2023-05-05T03:40:12.988Z,100566.72
2023-05-05T03:40:45.148Z,100569.66
2023-05-05T03:41:25.076Z,100566.16
2023-05-05T03:41:57.772Z,100570.72
2023-05-05T03:42:33.371Z,100564.28
2023-05-05T03:43:08.300Z,100566.97
2023-05-05T03:43:41.536Z,100569.66
2023-05-05T03:44:14.118Z,100566.72
2023-05-05T03:44:49.511Z,100555.94
2023-05-05T03:45:22.251Z,100566.72
2023-05-05T03:45:54.519Z,100556.72
2023-05-05T03:46:29.532Z,100563.75
2023-05-05T03:47:01.675Z,100560.22
2023-05-05T03:47:35.951Z,100551.31
2023-05-05T03:48:11.681Z,100553.78
2023-05-05T03:48:45.587Z,100551.06
2023-05-05T03:49:20.721Z,100549.75
2023-05-05T03:49:56.431Z,100550.56
2023-05-05T03:50:28.603Z,100552.47
2023-05-05T03:51:01.127Z,100549.75
2023-05-05T03:51:38.682Z,100550.56
2023-05-05T03:52:12.188Z,100551.38
2023-05-05T03:52:46.002Z,100549.47
2023-05-05T03:53:21.344Z,100551.94
2023-05-05T03:53:54.336Z,100552.19
2023-05-05T03:54:27.400Z,100551.13
2023-05-05T03:55:02.315Z,100550.06
2023-05-05T03:55:34.725Z,100551.94
2023-05-05T03:56:07.243Z,100560.31
2023-05-05T03:56:42.115Z,100550.88
2023-05-05T03:57:14.246Z,100557.84
2023-05-05T03:57:46.555Z,100560.56
2023-05-05T03:58:18.867Z,100554.09
2023-05-05T03:58:53.613Z,100550.34
2023-05-05T03:59:26.166Z,100557.06
2023-05-05T04:00:01.124Z,100559.78
2023-05-05T04:00:33.403Z,100560.03
2023-05-05T04:01:05.663Z,100557.56
2023-05-05T04:01:40.464Z,100557.84
2023-05-05T04:02:12.828Z,100559.97
2023-05-05T04:02:45.952Z,100561.34
2023-05-05T04:03:23.181Z,100562.63
2023-05-05T04:03:56.495Z,100567.50
2023-05-05T04:04:31.365Z,100560.97
2023-05-05T04:05:06.801Z,100563.38
2023-05-05T04:05:39.000Z,100565.78
2023-05-05T04:06:11.748Z,100563.34
2023-05-05T04:06:46.539Z,100562.22
2023-05-05T04:07:19.508Z,100575.47
2023-05-05T04:07:51.740Z,100568.44
2023-05-05T04:08:27.103Z,100563.56
2023-05-05T04:08:59.291Z,100565.16
2023-05-05T04:09:31.569Z,100580.75
2023-05-05T04:10:06.786Z,100572.59
2023-05-05T04:10:39.331Z,100571.50
2023-05-05T04:11:11.565Z,100575.53
2023-05-05T04:11:46.924Z,100575.78
2023-05-05T04:12:19.260Z,100574.41
2023-05-05T04:12:51.496Z,100569.28
2023-05-05T04:13:26.501Z,100567.41
2023-05-05T04:13:58.700Z,100573.84
2023-05-05T04:14:32.942Z,100571.16
2023-05-05T04:15:09.686Z,100563.88
2023-05-05T04:15:45.203Z,100575.47
2023-05-05T04:16:17.833Z,100572.78
2023-05-05T04:16:52.711Z,100578.75
2023-05-05T04:17:25.330Z,100581.16
2023-05-05T04:17:57.727Z,100573.06
2023-05-05T04:18:33.096Z,100569.06
2023-05-05T04:19:05.382Z,100571.50
2023-05-05T04:19:40.859Z,100574.47
2023-05-05T04:20:13.931Z,100575.28
2023-05-05T04:20:49.557Z,100576.13
2023-05-05T04:21:21.932Z,100572.59
2023-05-05T04:21:54.254Z,100577.53
2023-05-05T04:22:29.007Z,100576.44
2023-05-05T04:23:01.689Z,100571.03
2023-05-05T04:23:34.023Z,100574.31
2023-05-05T04:24:09.795Z,100580.28
2023-05-05T04:24:42.189Z,100573.78
2023-05-05T04:25:14.816Z,100563.81
2023-05-05T04:25:49.608Z,100567.09
2023-05-05T04:26:22.036Z,100570.59
2023-05-05T04:26:54.687Z,100571.13
2023-05-05T04:27:30.540Z,100577.09
2023-05-05T04:28:05.392Z,100578.72
2023-05-05T04:28:38.058Z,100574.69
2023-05-05T04:29:12.772Z,100577.69
2023-05-05T04:29:44.904Z,100576.59
2023-05-05T04:30:17.474Z,100574.44
2023-05-05T04:30:53.163Z,100579.84
2023-05-05T04:31:25.473Z,100577.16
2023-05-05T04:31:57.712Z,100578.78
2023-05-05T04:32:32.587Z,100579.34
2023-05-05T04:33:05.178Z,100582.84
2023-05-05T04:33:37.992Z,100581.75
2023-05-05T04:34:13.009Z,100581.75
2023-05-05T04:34:48.034Z,100580.69
2023-05-05T04:35:20.231Z,100578.00
2023-05-05T04:35:55.122Z,100586.91
2023-05-05T04:36:27.723Z,100583.16
2023-05-05T04:37:00.205Z,100585.84
2023-05-05T04:37:32.505Z,100582.34
2023-05-05T04:38:07.816Z,100591.25
2023-05-05T04:38:40.126Z,100584.22
2023-05-05T04:39:12.347Z,100585.03
2023-05-05T04:39:47.154Z,100585.03
2023-05-05T04:40:19.461Z,100590.41
2023-05-05T04:40:54.239Z,100589.34
2023-05-05T04:41:28.253Z,100589.34
2023-05-05T04:42:02.645Z,100588.28
2023-05-05T04:42:35.208Z,100590.72
2023-05-05T04:43:10.433Z,100592.59
2023-05-05T04:43:42.673Z,100588.84
2023-05-05T04:44:14.992Z,100590.72
2023-05-05T04:44:50.330Z,100589.66
2023-05-05T04:45:22.652Z,100595.03
2023-05-05T04:45:55.955Z,100595.03
2023-05-05T04:46:35.087Z,100585.88
2023-05-05T04:47:07.404Z,100584.25
2023-05-05T04:47:40.189Z,100585.06
2023-05-05T04:48:15.739Z,100584.25
2023-05-05T04:48:48.012Z,100580.50
2023-05-05T04:49:20.261Z,100585.59
2023-05-05T04:49:58.260Z,100583.22
2023-05-05T04:50:30.485Z,100580.22
2023-05-05T04:51:05.060Z,100585.09
2023-05-05T04:51:43.520Z,100584.28
2023-05-05T04:52:15.789Z,100586.41
2023-05-05T04:52:48.077Z,100585.06
2023-05-05T04:53:22.839Z,100578.03
2023-05-05T04:53:55.435Z,100587.19
2023-05-05T04:54:27.657Z,100582.63
2023-05-05T04:55:02.578Z,100590.47
2023-05-05T04:55:34.958Z,100593.41
2023-05-05T04:56:07.442Z,100590.72
2023-05-05T04:56:42.167Z,100593.41
2023-05-05T04:57:14.921Z,100592.59
2023-05-05T04:57:48.024Z,100589.66
2023-05-05T04:58:22.831Z,100593.16
2023-05-05T04:58:55.030Z,100590.22
2023-05-05T04:59:27.159Z,100588.06
2023-05-05T05:00:04.918Z,100586.75
2023-05-05T05:00:37.585Z,100591.03
2023-05-05T05:01:12.347Z,100589.72
2023-05-05T05:01:45.301Z,100591.31
2023-05-05T05:02:17.561Z,100590.00
2023-05-05T05:02:49.954Z,100595.16
2023-05-05T05:03:24.778Z,100598.94
2023-05-05T05:03:57.379Z,100605.16
2023-05-05T05:04:32.348Z,100600.31
2023-05-05T05:05:08.243Z,100608.97
2023-05-05T05:05:40.374Z,100605.44
2023-05-05T05:06:16.222Z,100604.09
2023-05-05T05:06:48.832Z,100601.16
2023-05-05T05:07:21.545Z,100600.91
2023-05-05T05:07:56.270Z,100603.59
2023-05-05T05:08:28.964Z,100605.22
2023-05-05T05:09:01.191Z,100611.97
2023-05-05T05:09:34.352Z,100617.91
2023-05-05T05:10:10.471Z,100610.63
2023-05-05T05:10:43.791Z,100611.44
2023-05-05T05:11:15.970Z,100606.63
2023-05-05T05:11:50.852Z,100602.00
2023-05-05T05:12:23.116Z,100602.56
2023-05-05T05:12:56.086Z,100606.63
2023-05-05T05:13:30.882Z,100604.75
2023-05-05T05:14:03.081Z,100607.75
2023-05-05T05:14:37.333Z,100605.34
2023-05-05T05:15:13.528Z,100609.38
2023-05-05T05:15:45.889Z,100603.72
2023-05-05T05:16:18.098Z,100609.41
2023-05-05T05:16:53.187Z,100609.97
2023-05-05T05:17:27.727Z,100606.19
2023-05-05T05:18:00.375Z,100606.75
2023-05-05T05:18:35.411Z,100608.38
2023-05-05T05:19:07.893Z,100608.09
2023-05-05T05:19:40.094Z,100614.88
2023-05-05T05:20:17.846Z,100599.19
2023-05-05T05:20:50.293Z,100604.59
2023-05-05T05:21:22.507Z,100613.00
2023-05-05T05:21:57.525Z,100616.50
2023-05-05T05:22:29.687Z,100612.72
2023-05-05T05:23:02.553Z,100611.66
2023-05-05T05:23:39.338Z,100610.31
2023-05-05T05:24:12.487Z,100608.44
2023-05-05T05:24:44.737Z,100609.00
2023-05-05T05:25:20.729Z,100613.84
2023-05-05T05:25:53.767Z,100616.28
2023-05-05T05:26:27.670Z,100612.53
2023-05-05T05:27:03.007Z,100614.94
2023-05-05T05:27:35.242Z,100609.00
2023-05-05T05:28:10.627Z,100613.59
2023-05-05T05:28:51.887Z,100616.53
2023-05-05T05:29:24.448Z,100616.84
2023-05-05T05:29:56.604Z,100608.44
2023-05-05T05:30:33.091Z,100610.91
2023-05-05T05:31:05.518Z,100617.66
2023-05-05T05:31:40.424Z,100614.69
2023-05-05T05:32:12.970Z,100618.19
2023-05-05T05:32:45.212Z,100612.53
2023-05-05T05:33:20.072Z,100611.44
2023-05-05T05:33:52.747Z,100609.81
2023-05-05T05:34:25.021Z,100616.03
2023-05-05T05:35:00.037Z,100620.38
2023-05-05T05:35:35.006Z,100616.59
2023-05-05T05:36:07.511Z,100625.50
2023-05-05T05:36:42.274Z,100619.81
2023-05-05T05:37:14.641Z,100625.78
2023-05-05T05:37:47.902Z,100621.72
2023-05-05T05:38:22.820Z,100620.13
2023-05-05T05:38:58.417Z,100630.13
2023-05-05T05:39:30.808Z,100623.91
2023-05-05T05:40:05.748Z,100625.53
2023-05-05T05:40:39.632Z,100627.13
2023-05-05T05:41:14.533Z,100627.94
2023-05-05T05:41:46.737Z,100629.59
2023-05-05T05:42:18.998Z,100622.88
2023-05-05T05:42:53.794Z,100630.72
2023-05-05T05:43:26.038Z,100632.63
2023-05-05T05:43:58.242Z,100622.88
2023-05-05T05:44:33.332Z,100615.06
2023-05-05T05:45:07.828Z,100623.72
2023-05-05T05:45:43.160Z,100617.78
2023-05-05T05:46:15.687Z,100618.31
2023-05-05T05:46:51.065Z,100616.19
2023-05-05T05:47:24.004Z,100611.56
2023-05-05T05:47:56.517Z,100608.59
2023-05-05T05:48:31.502Z,100616.16
2023-05-05T05:49:04.757Z,100605.09
2023-05-05T05:49:37.229Z,100609.19
2023-05-05T05:50:12.422Z,100614.03
2023-05-05T05:50:47.215Z,100610.25
2023-05-05T05:51:19.455Z,100610.78
2023-05-05T05:51:55.570Z,100610.25
2023-05-05T05:52:28.085Z,100603.25
2023-05-05T05:53:00.271Z,100601.63
2023-05-05T05:53:35.819Z,100605.16
2023-05-05T05:54:08.070Z,100605.97
2023-05-05T05:54:40.793Z,100605.66
2023-05-05T05:55:16.421Z,100609.19
2023-05-05T05:55:48.839Z,100605.66
2023-05-05T05:56:21.733Z,100604.84
2023-05-05T05:56:56.543Z,100605.97
2023-05-05T05:57:28.734Z,100608.91
2023-05-05T05:58:01.022Z,100604.31
2023-05-05T05:58:36.358Z,100603.25
2023-05-05T05:59:10.252Z,100608.13
2023-05-05T05:59:43.802Z,100605.94
2023-05-05T06:00:19.524Z,100601.09
2023-05-05T06:00:56.695Z,100605.44
2023-05-05T06:01:28.902Z,100604.88
2023-05-05T06:02:04.712Z,100604.06
2023-05-05T06:02:38.241Z,100604.63
2023-05-05T06:03:14.987Z,100609.22
2023-05-05T06:03:47.479Z,100603.53
2023-05-05T06:04:19.730Z,100610.84
2023-05-05T06:04:54.682Z,100613.00
2023-05-05T06:05:27.157Z,100608.13
2023-05-05T06:06:02.409Z,100611.66
2023-05-05T06:06:37.343Z,100608.13
2023-05-05T06:07:09.487Z,100606.25
2023-05-05T06:07:41.966Z,100609.50
2023-05-05T06:08:17.363Z,100608.69
2023-05-05T06:08:54.075Z,100609.75
2023-05-05T06:09:26.630Z,100606.50
2023-05-05T06:10:14.522Z,100609.75
2023-05-05T06:10:51.705Z,100612.47
2023-05-05T06:11:28.187Z,100610.28
2023-05-05T06:12:00.339Z,100610.03
2023-05-05T06:12:32.684Z,100610.28
2023-05-05T06:13:07.970Z,100609.22
2023-05-05T06:13:42.773Z,100609.47
2023-05-05T06:14:15.058Z,100613.25
2023-05-05T06:14:49.952Z,100604.06
2023-05-05T06:15:22.242Z,100611.38
2023-05-05T06:15:54.509Z,100617.84
2023-05-05T06:16:29.379Z,100608.41
2023-05-05T06:17:05.654Z,100608.66
2023-05-05T06:17:38.785Z,100601.63
2023-05-05T06:18:14.065Z,100610.53
2023-05-05T06:18:46.735Z,100610.00
2023-05-05T06:19:21.683Z,100609.16
2023-05-05T06:19:54.646Z,100609.47
2023-05-05T06:20:27.069Z,100608.13
2023-05-05T06:21:05.011Z,100609.19
2023-05-05T06:21:37.492Z,100606.19
2023-05-05T06:22:09.806Z,100611.88
2023-05-05T06:22:45.013Z,100610.25
2023-05-05T06:23:17.587Z,100615.38
2023-05-05T06:23:57.219Z,100615.66
2023-05-05T06:24:29.623Z,100613.72
2023-05-05T06:25:01.955Z,100618.88
2023-05-05T06:25:36.870Z,100617.53
2023-05-05T06:26:09.328Z,100614.53
2023-05-05T06:26:44.833Z,100610.47
2023-05-05T06:27:16.962Z,100615.88
2023-05-05T06:27:49.136Z,100614.25
2023-05-05T06:28:24.137Z,100615.00
2023-05-05T06:28:56.269Z,100609.88
2023-05-05T06:29:28.920Z,100609.84
2023-05-05T06:30:03.778Z,100619.84
2023-05-05T06:30:36.117Z,100605.47
2023-05-05T06:31:13.076Z,100605.44
2023-05-05T06:31:45.341Z,100601.91
2023-05-05T06:32:17.557Z,100605.38
2023-05-05T06:32:54.466Z,100608.34
2023-05-05T06:33:26.995Z,100604.56
2023-05-05T06:33:59.249Z,100596.97
2023-05-05T06:34:33.967Z,100599.38
2023-05-05T06:35:07.800Z,100598.53
2023-05-05T06:35:39.971Z,100604.50
2023-05-05T06:36:17.317Z,100602.31
2023-05-05T06:36:49.710Z,100595.84
2023-05-05T06:37:21.886Z,100599.09
2023-05-05T06:37:56.579Z,100601.50
2023-05-05T06:38:28.819Z,100605.03
2023-05-05T06:39:03.566Z,100600.16
2023-05-05T06:39:36.477Z,100608.28
2023-05-05T06:40:13.174Z,100607.69
2023-05-05T06:40:47.300Z,100604.19
2023-05-05T06:41:19.477Z,100604.19
2023-05-05T06:41:54.214Z,100601.19
2023-05-05T06:42:26.387Z,100602.81
2023-05-05T06:42:59.022Z,100603.88
2023-05-05T06:43:39.931Z,100601.41